CYGR

Iles-de-la-Madeleine Airport

Code ICAO CYGR
Code IATA YGR
Nom Iles-de-la-Madeleine Airport
Emplacement Iles-de-la-Madeleine, Quebec, CA
Élévation 35 pieds / 10.7 mètres
Latitude 47.42500000
Longitude -61.77805556
METAR CYGR 232313Z 35005KT 1/2SM FG VV002 15/15 A3024 RMK FG8 SLP240
Informations extras Afficher cartes et CFS
Afficher NOTAMS
Piste Longueur Largeur Surface Élévation
07 4493 ft 150 ft ASP 22 ft
16 3608 ft 150 ft ASP 9 ft
25 4493 ft 150 ft ASP 12 ft
34 3608 ft 150 ft ASP 35 ft